sensor_id;sensor_type;location;lat;lon;timestamp;P1;durP1;ratioP1;P2;durP2;ratioP2
10851;SDS011;5479;52.046;6.314;2023-07-22T00:01:11;13.47;;;9.57;;
10851;SDS011;5479;52.046;6.314;2023-07-22T00:03:40;13.03;;;9.23;;
10851;SDS011;5479;52.046;6.314;2023-07-22T00:06:08;13.27;;;9.60;;
10851;SDS011;5479;52.046;6.314;2023-07-22T00:08:38;13.87;;;9.67;;
10851;SDS011;5479;52.046;6.314;2023-07-22T00:11:06;12.70;;;9.73;;
10851;SDS011;5479;52.046;6.314;2023-07-22T00:13:34;13.60;;;9.97;;
10851;SDS011;5479;52.046;6.314;2023-07-22T00:16:03;13.83;;;10.10;;
10851;SDS011;5479;52.046;6.314;2023-07-22T00:18:32;13.00;;;9.37;;
10851;SDS011;5479;52.046;6.314;2023-07-22T00:21:01;13.37;;;10.13;;
10851;SDS011;5479;52.046;6.314;2023-07-22T00:23:29;13.17;;;8.87;;
10851;SDS011;5479;52.046;6.314;2023-07-22T00:25:57;13.30;;;9.73;;
10851;SDS011;5479;52.046;6.314;2023-07-22T00:28:25;15.20;;;10.80;;
10851;SDS011;5479;52.046;6.314;2023-07-22T00:30:54;15.50;;;9.97;;
10851;SDS011;5479;52.046;6.314;2023-07-22T00:33:23;15.93;;;9.87;;
10851;SDS011;5479;52.046;6.314;2023-07-22T00:35:53;14.20;;;10.27;;
10851;SDS011;5479;52.046;6.314;2023-07-22T00:38:21;14.70;;;10.10;;
10851;SDS011;5479;52.046;6.314;2023-07-22T00:40:49;11.30;;;9.13;;
10851;SDS011;5479;52.046;6.314;2023-07-22T00:43:17;13.20;;;9.83;;
10851;SDS011;5479;52.046;6.314;2023-07-22T00:45:45;12.53;;;9.37;;
10851;SDS011;5479;52.046;6.314;2023-07-22T00:48:13;12.77;;;9.03;;
10851;SDS011;5479;52.046;6.314;2023-07-22T00:50:43;12.60;;;9.50;;
10851;SDS011;5479;52.046;6.314;2023-07-22T00:53:14;12.27;;;9.53;;
10851;SDS011;5479;52.046;6.314;2023-07-22T00:55:42;12.00;;;8.77;;
10851;SDS011;5479;52.046;6.314;2023-07-22T00:58:10;11.93;;;9.07;;
10851;SDS011;5479;52.046;6.314;2023-07-22T01:00:38;12.23;;;9.57;;
10851;SDS011;5479;52.046;6.314;2023-07-22T01:03:06;11.90;;;9.60;;
10851;SDS011;5479;52.046;6.314;2023-07-22T01:05:35;13.87;;;9.50;;
10851;SDS011;5479;52.046;6.314;2023-07-22T01:08:04;15.13;;;9.63;;
10851;SDS011;5479;52.046;6.314;2023-07-22T01:10:35;12.50;;;9.17;;
10851;SDS011;5479;52.046;6.314;2023-07-22T01:13:03;15.03;;;10.13;;
10851;SDS011;5479;52.046;6.314;2023-07-22T01:15:31;12.50;;;9.33;;
10851;SDS011;5479;52.046;6.314;2023-07-22T01:18:00;12.73;;;10.03;;
10851;SDS011;5479;52.046;6.314;2023-07-22T01:20:30;14.20;;;9.67;;
10851;SDS011;5479;52.046;6.314;2023-07-22T01:23:00;13.43;;;9.43;;
10851;SDS011;5479;52.046;6.314;2023-07-22T01:25:28;11.80;;;9.43;;
10851;SDS011;5479;52.046;6.314;2023-07-22T01:27:57;12.50;;;9.07;;
10851;SDS011;5479;52.046;6.314;2023-07-22T01:30:24;13.40;;;9.57;;
10851;SDS011;5479;52.046;6.314;2023-07-22T01:32:53;13.80;;;9.17;;
10851;SDS011;5479;52.046;6.314;2023-07-22T01:35:22;13.13;;;9.77;;
10851;SDS011;5479;52.046;6.314;2023-07-22T01:37:50;14.67;;;9.93;;
10851;SDS011;5479;52.046;6.314;2023-07-22T01:40:19;14.70;;;10.60;;
10851;SDS011;5479;52.046;6.314;2023-07-22T01:42:49;13.47;;;10.57;;
10851;SDS011;5479;52.046;6.314;2023-07-22T01:45:17;13.10;;;10.47;;
10851;SDS011;5479;52.046;6.314;2023-07-22T01:47:46;14.80;;;10.83;;
10851;SDS011;5479;52.046;6.314;2023-07-22T01:50:14;14.43;;;10.80;;
10851;SDS011;5479;52.046;6.314;2023-07-22T01:52:44;13.67;;;10.27;;
10851;SDS011;5479;52.046;6.314;2023-07-22T01:55:13;14.07;;;9.73;;
10851;SDS011;5479;52.046;6.314;2023-07-22T01:57:43;15.03;;;9.97;;
10851;SDS011;5479;52.046;6.314;2023-07-22T02:00:11;14.70;;;10.40;;
10851;SDS011;5479;52.046;6.314;2023-07-22T02:02:41;14.27;;;10.13;;
10851;SDS011;5479;52.046;6.314;2023-07-22T02:05:09;14.23;;;10.80;;
10851;SDS011;5479;52.046;6.314;2023-07-22T02:07:37;13.97;;;10.33;;
10851;SDS011;5479;52.046;6.314;2023-07-22T02:10:06;14.67;;;10.90;;
10851;SDS011;5479;52.046;6.314;2023-07-22T02:12:36;15.60;;;10.87;;
10851;SDS011;5479;52.046;6.314;2023-07-22T02:15:06;14.73;;;10.90;;
10851;SDS011;5479;52.046;6.314;2023-07-22T02:17:35;13.30;;;10.80;;
10851;SDS011;5479;52.046;6.314;2023-07-22T02:20:03;16.37;;;11.43;;
10851;SDS011;5479;52.046;6.314;2023-07-22T02:22:32;15.60;;;11.57;;
10851;SDS011;5479;52.046;6.314;2023-07-22T02:25:00;15.17;;;11.73;;
10851;SDS011;5479;52.046;6.314;2023-07-22T02:27:29;16.90;;;11.80;;
10851;SDS011;5479;52.046;6.314;2023-07-22T02:29:58;16.80;;;12.60;;
10851;SDS011;5479;52.046;6.314;2023-07-22T02:32:28;17.83;;;12.10;;
10851;SDS011;5479;52.046;6.314;2023-07-22T02:34:59;16.83;;;12.63;;
10851;SDS011;5479;52.046;6.314;2023-07-22T02:37:27;19.53;;;14.77;;
10851;SDS011;5479;52.046;6.314;2023-07-22T02:39:55;19.67;;;14.67;;
10851;SDS011;5479;52.046;6.314;2023-07-22T02:42:23;21.63;;;15.80;;
10851;SDS011;5479;52.046;6.314;2023-07-22T02:44:51;22.17;;;16.20;;
10851;SDS011;5479;52.046;6.314;2023-07-22T02:47:19;20.00;;;15.87;;
10851;SDS011;5479;52.046;6.314;2023-07-22T02:49:49;20.57;;;15.30;;
10851;SDS011;5479;52.046;6.314;2023-07-22T02:52:17;24.57;;;18.17;;
10851;SDS011;5479;52.046;6.314;2023-07-22T02:54:54;22.40;;;16.53;;
10851;SDS011;5479;52.046;6.314;2023-07-22T02:57:31;22.13;;;16.10;;
10851;SDS011;5479;52.046;6.314;2023-07-22T02:59:59;22.57;;;17.03;;
10851;SDS011;5479;52.046;6.314;2023-07-22T03:02:31;22.87;;;16.53;;
10851;SDS011;5479;52.046;6.314;2023-07-22T03:05:00;23.13;;;16.90;;
10851;SDS011;5479;52.046;6.314;2023-07-22T03:07:33;21.57;;;16.43;;
10851;SDS011;5479;52.046;6.314;2023-07-22T03:10:01;22.13;;;17.53;;
10851;SDS011;5479;52.046;6.314;2023-07-22T03:12:29;22.70;;;17.57;;
10851;SDS011;5479;52.046;6.314;2023-07-22T03:14:57;23.00;;;16.43;;
10851;SDS011;5479;52.046;6.314;2023-07-22T03:17:25;23.80;;;16.60;;
10851;SDS011;5479;52.046;6.314;2023-07-22T03:19:54;22.47;;;16.73;;
10851;SDS011;5479;52.046;6.314;2023-07-22T03:22:23;21.80;;;17.07;;
10851;SDS011;5479;52.046;6.314;2023-07-22T03:24:51;22.13;;;16.47;;
10851;SDS011;5479;52.046;6.314;2023-07-22T03:27:20;23.03;;;16.63;;
10851;SDS011;5479;52.046;6.314;2023-07-22T03:29:49;20.73;;;15.60;;
10851;SDS011;5479;52.046;6.314;2023-07-22T03:32:17;22.60;;;16.17;;
10851;SDS011;5479;52.046;6.314;2023-07-22T03:34:45;22.43;;;16.30;;
10851;SDS011;5479;52.046;6.314;2023-07-22T03:37:13;22.60;;;15.50;;
10851;SDS011;5479;52.046;6.314;2023-07-22T03:39:43;22.43;;;15.87;;
10851;SDS011;5479;52.046;6.314;2023-07-22T03:42:11;22.77;;;16.10;;
10851;SDS011;5479;52.046;6.314;2023-07-22T03:44:39;19.43;;;14.53;;
10851;SDS011;5479;52.046;6.314;2023-07-22T03:47:07;22.97;;;16.03;;
10851;SDS011;5479;52.046;6.314;2023-07-22T03:49:35;21.03;;;15.80;;
10851;SDS011;5479;52.046;6.314;2023-07-22T03:52:04;19.93;;;14.47;;
10851;SDS011;5479;52.046;6.314;2023-07-22T03:54:33;19.70;;;14.77;;
10851;SDS011;5479;52.046;6.314;2023-07-22T03:57:02;20.93;;;15.57;;
10851;SDS011;5479;52.046;6.314;2023-07-22T03:59:31;20.67;;;14.93;;
10851;SDS011;5479;52.046;6.314;2023-07-22T04:02:00;20.73;;;15.77;;
10851;SDS011;5479;52.046;6.314;2023-07-22T04:04:28;19.07;;;14.70;;
10851;SDS011;5479;52.046;6.314;2023-07-22T04:06:56;19.87;;;14.33;;
10851;SDS011;5479;52.046;6.314;2023-07-22T04:09:25;18.57;;;14.70;;
10851;SDS011;5479;52.046;6.314;2023-07-22T04:11:54;19.83;;;15.57;;
10851;SDS011;5479;52.046;6.314;2023-07-22T04:14:24;19.97;;;15.10;;
10851;SDS011;5479;52.046;6.314;2023-07-22T04:16:53;20.20;;;15.37;;
10851;SDS011;5479;52.046;6.314;2023-07-22T04:19:21;20.67;;;14.70;;
10851;SDS011;5479;52.046;6.314;2023-07-22T04:21:49;22.00;;;16.37;;
10851;SDS011;5479;52.046;6.314;2023-07-22T04:24:18;20.63;;;15.47;;
10851;SDS011;5479;52.046;6.314;2023-07-22T04:26:46;21.40;;;16.20;;
10851;SDS011;5479;52.046;6.314;2023-07-22T04:29:14;22.03;;;16.33;;
10851;SDS011;5479;52.046;6.314;2023-07-22T04:31:45;23.43;;;16.80;;
10851;SDS011;5479;52.046;6.314;2023-07-22T04:34:14;21.33;;;15.20;;
10851;SDS011;5479;52.046;6.314;2023-07-22T04:36:42;22.03;;;16.00;;
10851;SDS011;5479;52.046;6.314;2023-07-22T04:39:10;23.37;;;16.87;;
10851;SDS011;5479;52.046;6.314;2023-07-22T04:41:38;20.53;;;15.27;;
10851;SDS011;5479;52.046;6.314;2023-07-22T04:44:06;23.20;;;16.30;;
10851;SDS011;5479;52.046;6.314;2023-07-22T04:46:34;20.20;;;16.10;;
10851;SDS011;5479;52.046;6.314;2023-07-22T04:49:04;22.07;;;15.60;;
10851;SDS011;5479;52.046;6.314;2023-07-22T04:51:32;22.67;;;15.87;;
10851;SDS011;5479;52.046;6.314;2023-07-22T04:54:00;20.10;;;15.20;;
10851;SDS011;5479;52.046;6.314;2023-07-22T04:56:28;19.40;;;14.57;;
10851;SDS011;5479;52.046;6.314;2023-07-22T04:58:57;20.70;;;15.47;;
10851;SDS011;5479;52.046;6.314;2023-07-22T05:01:25;21.70;;;15.53;;
10851;SDS011;5479;52.046;6.314;2023-07-22T05:03:52;21.77;;;15.93;;
10851;SDS011;5479;52.046;6.314;2023-07-22T05:06:23;19.37;;;14.47;;
10851;SDS011;5479;52.046;6.314;2023-07-22T05:08:51;20.93;;;16.17;;
10851;SDS011;5479;52.046;6.314;2023-07-22T05:11:19;19.20;;;14.87;;
10851;SDS011;5479;52.046;6.314;2023-07-22T05:13:49;24.80;;;16.97;;
10851;SDS011;5479;52.046;6.314;2023-07-22T05:16:17;20.50;;;16.03;;
10851;SDS011;5479;52.046;6.314;2023-07-22T05:18:47;23.47;;;16.40;;
10851;SDS011;5479;52.046;6.314;2023-07-22T05:21:16;21.93;;;17.17;;
10851;SDS011;5479;52.046;6.314;2023-07-22T05:23:45;22.10;;;17.13;;
10851;SDS011;5479;52.046;6.314;2023-07-22T05:26:13;22.70;;;16.20;;
10851;SDS011;5479;52.046;6.314;2023-07-22T05:28:42;23.07;;;18.00;;
10851;SDS011;5479;52.046;6.314;2023-07-22T05:31:09;21.90;;;17.03;;
10851;SDS011;5479;52.046;6.314;2023-07-22T05:33:37;23.27;;;18.30;;
10851;SDS011;5479;52.046;6.314;2023-07-22T05:36:05;24.97;;;19.20;;
10851;SDS011;5479;52.046;6.314;2023-07-22T05:38:33;24.93;;;17.73;;
10851;SDS011;5479;52.046;6.314;2023-07-22T05:41:04;23.17;;;18.63;;
10851;SDS011;5479;52.046;6.314;2023-07-22T05:43:32;26.17;;;20.97;;
10851;SDS011;5479;52.046;6.314;2023-07-22T05:46:00;26.73;;;19.67;;
10851;SDS011;5479;52.046;6.314;2023-07-22T05:48:28;25.83;;;20.13;;
10851;SDS011;5479;52.046;6.314;2023-07-22T05:50:56;27.37;;;20.83;;
10851;SDS011;5479;52.046;6.314;2023-07-22T05:53:24;26.00;;;20.47;;
10851;SDS011;5479;52.046;6.314;2023-07-22T05:55:52;26.27;;;21.40;;
10851;SDS011;5479;52.046;6.314;2023-07-22T05:58:22;27.63;;;22.70;;
10851;SDS011;5479;52.046;6.314;2023-07-22T06:00:50;26.83;;;22.30;;
10851;SDS011;5479;52.046;6.314;2023-07-22T06:03:18;27.93;;;22.57;;
10851;SDS011;5479;52.046;6.314;2023-07-22T06:05:47;26.17;;;22.07;;
10851;SDS011;5479;52.046;6.314;2023-07-22T06:08:15;26.53;;;22.00;;
10851;SDS011;5479;52.046;6.314;2023-07-22T06:10:43;30.23;;;23.07;;
10851;SDS011;5479;52.046;6.314;2023-07-22T06:13:11;26.03;;;21.77;;
10851;SDS011;5479;52.046;6.314;2023-07-22T06:15:39;24.47;;;20.80;;
10851;SDS011;5479;52.046;6.314;2023-07-22T06:18:07;22.70;;;18.80;;
10851;SDS011;5479;52.046;6.314;2023-07-22T06:20:35;27.87;;;20.73;;
10851;SDS011;5479;52.046;6.314;2023-07-22T06:23:06;25.90;;;21.40;;
10851;SDS011;5479;52.046;6.314;2023-07-22T06:25:34;24.77;;;19.87;;
10851;SDS011;5479;52.046;6.314;2023-07-22T06:28:02;25.67;;;20.73;;
10851;SDS011;5479;52.046;6.314;2023-07-22T06:30:30;24.37;;;19.57;;
10851;SDS011;5479;52.046;6.314;2023-07-22T06:33:00;24.10;;;19.85;;
10851;SDS011;5479;52.046;6.314;2023-07-22T06:35:30;23.00;;;18.63;;
10851;SDS011;5479;52.046;6.314;2023-07-22T06:37:58;24.88;;;18.85;;
10851;SDS011;5479;52.046;6.314;2023-07-22T06:40:26;25.85;;;18.58;;
10851;SDS011;5479;52.046;6.314;2023-07-22T06:42:56;21.23;;;17.00;;
10851;SDS011;5479;52.046;6.314;2023-07-22T06:45:24;20.92;;;16.90;;
10851;SDS011;5479;52.046;6.314;2023-07-22T06:47:52;20.67;;;16.70;;
10851;SDS011;5479;52.046;6.314;2023-07-22T06:50:21;22.33;;;18.55;;
10851;SDS011;5479;52.046;6.314;2023-07-22T06:52:49;20.17;;;16.73;;
10851;SDS011;5479;52.046;6.314;2023-07-22T06:55:17;20.60;;;16.30;;
10851;SDS011;5479;52.046;6.314;2023-07-22T06:57:45;19.40;;;16.02;;
10851;SDS011;5479;52.046;6.314;2023-07-22T07:00:15;21.05;;;16.75;;
10851;SDS011;5479;52.046;6.314;2023-07-22T07:02:46;22.25;;;16.63;;
10851;SDS011;5479;52.046;6.314;2023-07-22T07:05:14;21.08;;;17.05;;
10851;SDS011;5479;52.046;6.314;2023-07-22T07:07:45;21.70;;;17.08;;
10851;SDS011;5479;52.046;6.314;2023-07-22T07:10:13;21.92;;;16.77;;
10851;SDS011;5479;52.046;6.314;2023-07-22T07:12:41;21.00;;;16.15;;
10851;SDS011;5479;52.046;6.314;2023-07-22T07:15:10;21.58;;;17.25;;
10851;SDS011;5479;52.046;6.314;2023-07-22T07:17:39;21.45;;;17.02;;
10851;SDS011;5479;52.046;6.314;2023-07-22T07:20:07;21.23;;;17.33;;
10851;SDS011;5479;52.046;6.314;2023-07-22T07:22:35;18.33;;;16.38;;
10851;SDS011;5479;52.046;6.314;2023-07-22T07:25:07;22.20;;;17.33;;
10851;SDS011;5479;52.046;6.314;2023-07-22T07:27:35;18.30;;;15.02;;
10851;SDS011;5479;52.046;6.314;2023-07-22T07:30:04;20.92;;;16.63;;
10851;SDS011;5479;52.046;6.314;2023-07-22T07:32:34;19.33;;;15.38;;
10851;SDS011;5479;52.046;6.314;2023-07-22T07:35:03;18.92;;;15.13;;
10851;SDS011;5479;52.046;6.314;2023-07-22T07:37:32;19.27;;;15.02;;
10851;SDS011;5479;52.046;6.314;2023-07-22T07:40:00;19.73;;;14.98;;
10851;SDS011;5479;52.046;6.314;2023-07-22T07:42:29;17.30;;;14.43;;
10851;SDS011;5479;52.046;6.314;2023-07-22T07:44:58;17.75;;;15.75;;
10851;SDS011;5479;52.046;6.314;2023-07-22T07:47:26;16.88;;;14.23;;
10851;SDS011;5479;52.046;6.314;2023-07-22T07:49:54;17.88;;;14.35;;
10851;SDS011;5479;52.046;6.314;2023-07-22T07:52:22;15.40;;;13.18;;
10851;SDS011;5479;52.046;6.314;2023-07-22T07:54:50;16.13;;;14.43;;
10851;SDS011;5479;52.046;6.314;2023-07-22T07:57:18;16.15;;;14.45;;
10851;SDS011;5479;52.046;6.314;2023-07-22T07:59:47;16.98;;;14.35;;
10851;SDS011;5479;52.046;6.314;2023-07-22T08:02:15;16.67;;;14.50;;
10851;SDS011;5479;52.046;6.314;2023-07-22T08:04:43;16.02;;;14.02;;
10851;SDS011;5479;52.046;6.314;2023-07-22T08:07:14;17.13;;;14.07;;
10851;SDS011;5479;52.046;6.314;2023-07-22T08:09:43;15.98;;;13.27;;
10851;SDS011;5479;52.046;6.314;2023-07-22T08:12:14;18.42;;;13.60;;
10851;SDS011;5479;52.046;6.314;2023-07-22T08:14:45;14.80;;;12.57;;
10851;SDS011;5479;52.046;6.314;2023-07-22T08:17:15;17.50;;;12.65;;
10851;SDS011;5479;52.046;6.314;2023-07-22T08:19:43;15.32;;;12.93;;
10851;SDS011;5479;52.046;6.314;2023-07-22T08:22:10;14.10;;;11.18;;
10851;SDS011;5479;52.046;6.314;2023-07-22T08:24:38;16.02;;;12.85;;
10851;SDS011;5479;52.046;6.314;2023-07-22T08:27:06;15.15;;;12.73;;
10851;SDS011;5479;52.046;6.314;2023-07-22T08:29:35;15.13;;;12.73;;
10851;SDS011;5479;52.046;6.314;2023-07-22T08:32:06;15.50;;;11.50;;
10851;SDS011;5479;52.046;6.314;2023-07-22T08:34:34;14.45;;;11.80;;
10851;SDS011;5479;52.046;6.314;2023-07-22T08:37:02;14.70;;;12.00;;
10851;SDS011;5479;52.046;6.314;2023-07-22T08:39:31;13.98;;;11.68;;
10851;SDS011;5479;52.046;6.314;2023-07-22T08:42:00;15.10;;;11.82;;
10851;SDS011;5479;52.046;6.314;2023-07-22T08:44:32;16.15;;;12.25;;
10851;SDS011;5479;52.046;6.314;2023-07-22T08:47:02;16.80;;;12.48;;
10851;SDS011;5479;52.046;6.314;2023-07-22T08:49:33;16.08;;;12.65;;
10851;SDS011;5479;52.046;6.314;2023-07-22T08:52:02;15.68;;;12.27;;
10851;SDS011;5479;52.046;6.314;2023-07-22T08:54:31;14.85;;;11.43;;
10851;SDS011;5479;52.046;6.314;2023-07-22T08:57:00;17.55;;;12.25;;
10851;SDS011;5479;52.046;6.314;2023-07-22T08:59:28;14.85;;;10.95;;
10851;SDS011;5479;52.046;6.314;2023-07-22T09:01:57;13.88;;;10.07;;
10851;SDS011;5479;52.046;6.314;2023-07-22T09:04:25;12.50;;;9.95;;
10851;SDS011;5479;52.046;6.314;2023-07-22T09:06:55;12.85;;;9.55;;
10851;SDS011;5479;52.046;6.314;2023-07-22T09:09:23;12.52;;;9.40;;
10851;SDS011;5479;52.046;6.314;2023-07-22T09:11:52;11.10;;;8.02;;
10851;SDS011;5479;52.046;6.314;2023-07-22T09:14:21;12.63;;;8.43;;
10851;SDS011;5479;52.046;6.314;2023-07-22T09:16:51;12.20;;;8.43;;
10851;SDS011;5479;52.046;6.314;2023-07-22T09:19:18;12.73;;;9.38;;
10851;SDS011;5479;52.046;6.314;2023-07-22T09:21:46;12.63;;;9.85;;
10851;SDS011;5479;52.046;6.314;2023-07-22T09:24:22;13.77;;;9.57;;
10851;SDS011;5479;52.046;6.314;2023-07-22T09:26:51;11.27;;;8.68;;
10851;SDS011;5479;52.046;6.314;2023-07-22T09:29:21;12.75;;;9.02;;
10851;SDS011;5479;52.046;6.314;2023-07-22T09:32:00;12.13;;;9.18;;
10851;SDS011;5479;52.046;6.314;2023-07-22T09:34:29;10.50;;;8.73;;
10851;SDS011;5479;52.046;6.314;2023-07-22T09:36:58;11.68;;;9.73;;
10851;SDS011;5479;52.046;6.314;2023-07-22T09:39:30;11.82;;;8.80;;
10851;SDS011;5479;52.046;6.314;2023-07-22T09:41:58;15.23;;;9.85;;
10851;SDS011;5479;52.046;6.314;2023-07-22T09:44:29;15.45;;;10.02;;
10851;SDS011;5479;52.046;6.314;2023-07-22T09:46:58;12.68;;;10.25;;
10851;SDS011;5479;52.046;6.314;2023-07-22T09:49:33;13.57;;;9.82;;
10851;SDS011;5479;52.046;6.314;2023-07-22T09:52:00;17.00;;;10.38;;
10851;SDS011;5479;52.046;6.314;2023-07-22T09:54:43;11.77;;;9.68;;
10851;SDS011;5479;52.046;6.314;2023-07-22T09:57:15;13.55;;;10.25;;
10851;SDS011;5479;52.046;6.314;2023-07-22T09:59:43;14.20;;;11.00;;
10851;SDS011;5479;52.046;6.314;2023-07-22T10:02:12;15.88;;;10.95;;
10851;SDS011;5479;52.046;6.314;2023-07-22T10:04:47;14.48;;;10.48;;
10851;SDS011;5479;52.046;6.314;2023-07-22T10:07:19;13.48;;;8.60;;
10851;SDS011;5479;52.046;6.314;2023-07-22T10:09:49;13.65;;;8.70;;
10851;SDS011;5479;52.046;6.314;2023-07-22T10:12:21;13.63;;;8.88;;
10851;SDS011;5479;52.046;6.314;2023-07-22T10:14:49;13.52;;;9.45;;
10851;SDS011;5479;52.046;6.314;2023-07-22T10:17:19;12.85;;;9.10;;
10851;SDS011;5479;52.046;6.314;2023-07-22T10:19:51;11.25;;;9.13;;
10851;SDS011;5479;52.046;6.314;2023-07-22T10:22:20;12.32;;;8.68;;
10851;SDS011;5479;52.046;6.314;2023-07-22T10:24:51;11.18;;;7.70;;
10851;SDS011;5479;52.046;6.314;2023-07-22T10:27:21;10.50;;;8.65;;
10851;SDS011;5479;52.046;6.314;2023-07-22T10:29:50;12.40;;;8.23;;
10851;SDS011;5479;52.046;6.314;2023-07-22T10:32:18;10.27;;;7.28;;
10851;SDS011;5479;52.046;6.314;2023-07-22T10:34:46;10.32;;;7.57;;
10851;SDS011;5479;52.046;6.314;2023-07-22T10:37:17;12.55;;;7.18;;
10851;SDS011;5479;52.046;6.314;2023-07-22T10:39:45;11.32;;;7.90;;
10851;SDS011;5479;52.046;6.314;2023-07-22T10:42:17;11.07;;;6.90;;
10851;SDS011;5479;52.046;6.314;2023-07-22T10:44:51;11.82;;;7.13;;
10851;SDS011;5479;52.046;6.314;2023-07-22T10:47:31;12.10;;;7.85;;
10851;SDS011;5479;52.046;6.314;2023-07-22T10:50:05;9.88;;;7.30;;
10851;SDS011;5479;52.046;6.314;2023-07-22T10:52:37;11.13;;;7.50;;
10851;SDS011;5479;52.046;6.314;2023-07-22T10:55:16;12.73;;;7.28;;
10851;SDS011;5479;52.046;6.314;2023-07-22T10:57:48;11.90;;;6.80;;
10851;SDS011;5479;52.046;6.314;2023-07-22T11:00:18;10.45;;;5.88;;
10851;SDS011;5479;52.046;6.314;2023-07-22T11:05:50;10.27;;;4.80;;
10851;SDS011;5479;52.046;6.314;2023-07-22T11:11:03;10.05;;;5.85;;
10851;SDS011;5479;52.046;6.314;2023-07-22T11:13:36;15.38;;;6.13;;
10851;SDS011;5479;52.046;6.314;2023-07-22T11:16:09;9.10;;;5.78;;
10851;SDS011;5479;52.046;6.314;2023-07-22T11:18:38;9.95;;;5.88;;
10851;SDS011;5479;52.046;6.314;2023-07-22T11:21:08;11.88;;;5.90;;
10851;SDS011;5479;52.046;6.314;2023-07-22T11:23:37;8.68;;;5.57;;
10851;SDS011;5479;52.046;6.314;2023-07-22T11:26:05;49.10;;;8.73;;
10851;SDS011;5479;52.046;6.314;2023-07-22T11:28:35;9.07;;;5.47;;
10851;SDS011;5479;52.046;6.314;2023-07-22T11:31:04;10.38;;;5.20;;
10851;SDS011;5479;52.046;6.314;2023-07-22T11:33:39;85.95;;;12.70;;
10851;SDS011;5479;52.046;6.314;2023-07-22T11:36:10;11.32;;;5.47;;
10851;SDS011;5479;52.046;6.314;2023-07-22T11:38:39;7.95;;;4.53;;
10851;SDS011;5479;52.046;6.314;2023-07-22T11:41:09;14.52;;;5.30;;
10851;SDS011;5479;52.046;6.314;2023-07-22T11:43:38;91.93;;;13.52;;
10851;SDS011;5479;52.046;6.314;2023-07-22T11:46:07;10.77;;;5.22;;
10851;SDS011;5479;52.046;6.314;2023-07-22T11:48:35;9.10;;;5.03;;
10851;SDS011;5479;52.046;6.314;2023-07-22T11:51:06;7.68;;;5.05;;
10851;SDS011;5479;52.046;6.314;2023-07-22T11:53:34;9.55;;;5.40;;
10851;SDS011;5479;52.046;6.314;2023-07-22T11:56:03;8.48;;;4.97;;
10851;SDS011;5479;52.046;6.314;2023-07-22T11:58:32;7.68;;;4.63;;
10851;SDS011;5479;52.046;6.314;2023-07-22T12:01:05;8.20;;;5.13;;
10851;SDS011;5479;52.046;6.314;2023-07-22T12:03:35;8.57;;;5.22;;
10851;SDS011;5479;52.046;6.314;2023-07-22T12:06:05;9.35;;;4.80;;
10851;SDS011;5479;52.046;6.314;2023-07-22T12:08:34;8.77;;;4.70;;
10851;SDS011;5479;52.046;6.314;2023-07-22T12:11:03;8.40;;;4.75;;
10851;SDS011;5479;52.046;6.314;2023-07-22T12:13:35;6.90;;;4.30;;
10851;SDS011;5479;52.046;6.314;2023-07-22T12:16:06;9.23;;;4.93;;
10851;SDS011;5479;52.046;6.314;2023-07-22T12:18:43;6.35;;;4.60;;
10851;SDS011;5479;52.046;6.314;2023-07-22T12:21:12;6.53;;;4.72;;
10851;SDS011;5479;52.046;6.314;2023-07-22T12:23:41;8.35;;;4.70;;
10851;SDS011;5479;52.046;6.314;2023-07-22T12:26:11;7.40;;;4.80;;
10851;SDS011;5479;52.046;6.314;2023-07-22T12:28:39;9.82;;;4.78;;
10851;SDS011;5479;52.046;6.314;2023-07-22T12:31:10;7.30;;;4.63;;
10851;SDS011;5479;52.046;6.314;2023-07-22T12:33:39;7.20;;;4.88;;
10851;SDS011;5479;52.046;6.314;2023-07-22T12:36:07;6.43;;;3.90;;
10851;SDS011;5479;52.046;6.314;2023-07-22T12:38:35;7.22;;;4.32;;
10851;SDS011;5479;52.046;6.314;2023-07-22T12:41:03;7.90;;;4.30;;
10851;SDS011;5479;52.046;6.314;2023-07-22T12:43:31;10.55;;;4.25;;
10851;SDS011;5479;52.046;6.314;2023-07-22T12:45:59;7.43;;;4.22;;
10851;SDS011;5479;52.046;6.314;2023-07-22T12:48:29;6.05;;;3.95;;
10851;SDS011;5479;52.046;6.314;2023-07-22T12:50:58;6.15;;;4.05;;
10851;SDS011;5479;52.046;6.314;2023-07-22T12:53:29;8.23;;;4.20;;
10851;SDS011;5479;52.046;6.314;2023-07-22T12:55:57;6.50;;;3.78;;
10851;SDS011;5479;52.046;6.314;2023-07-22T12:58:25;6.22;;;3.65;;
10851;SDS011;5479;52.046;6.314;2023-07-22T13:00:53;8.13;;;4.15;;
10851;SDS011;5479;52.046;6.314;2023-07-22T13:03:20;7.68;;;3.72;;
10851;SDS011;5479;52.046;6.314;2023-07-22T13:05:49;8.13;;;3.67;;
10851;SDS011;5479;52.046;6.314;2023-07-22T13:08:17;5.90;;;3.10;;
10851;SDS011;5479;52.046;6.314;2023-07-22T13:10:45;6.97;;;3.35;;
10851;SDS011;5479;52.046;6.314;2023-07-22T13:13:13;7.13;;;3.30;;
10851;SDS011;5479;52.046;6.314;2023-07-22T13:15:41;6.93;;;3.60;;
10851;SDS011;5479;52.046;6.314;2023-07-22T13:18:09;6.05;;;3.45;;
10851;SDS011;5479;52.046;6.314;2023-07-22T13:20:40;5.38;;;2.75;;
10851;SDS011;5479;52.046;6.314;2023-07-22T13:23:09;6.28;;;2.88;;
10851;SDS011;5479;52.046;6.314;2023-07-22T13:25:37;5.35;;;2.75;;
10851;SDS011;5479;52.046;6.314;2023-07-22T13:28:05;5.85;;;2.80;;
10851;SDS011;5479;52.046;6.314;2023-07-22T13:30:34;5.22;;;3.03;;
10851;SDS011;5479;52.046;6.314;2023-07-22T13:33:02;8.52;;;4.13;;
10851;SDS011;5479;52.046;6.314;2023-07-22T13:35:30;6.75;;;3.55;;
10851;SDS011;5479;52.046;6.314;2023-07-22T13:37:58;7.10;;;3.70;;
10851;SDS011;5479;52.046;6.314;2023-07-22T13:40:30;6.68;;;3.85;;
10851;SDS011;5479;52.046;6.314;2023-07-22T13:42:58;6.55;;;3.72;;
10851;SDS011;5479;52.046;6.314;2023-07-22T13:45:27;6.30;;;3.50;;
10851;SDS011;5479;52.046;6.314;2023-07-22T13:47:55;7.35;;;3.83;;
10851;SDS011;5479;52.046;6.314;2023-07-22T13:50:24;5.35;;;3.30;;
10851;SDS011;5479;52.046;6.314;2023-07-22T13:52:52;8.30;;;3.95;;
10851;SDS011;5479;52.046;6.314;2023-07-22T13:55:21;7.60;;;3.92;;
10851;SDS011;5479;52.046;6.314;2023-07-22T13:57:52;8.25;;;3.80;;
10851;SDS011;5479;52.046;6.314;2023-07-22T14:00:20;8.02;;;4.10;;
10851;SDS011;5479;52.046;6.314;2023-07-22T14:02:48;6.40;;;3.70;;
10851;SDS011;5479;52.046;6.314;2023-07-22T14:05:17;9.45;;;4.35;;
10851;SDS011;5479;52.046;6.314;2023-07-22T14:07:46;5.53;;;3.70;;
10851;SDS011;5479;52.046;6.314;2023-07-22T14:10:14;6.68;;;3.40;;
10851;SDS011;5479;52.046;6.314;2023-07-22T14:12:43;8.77;;;3.25;;
10851;SDS011;5479;52.046;6.314;2023-07-22T14:15:13;9.30;;;3.75;;
10851;SDS011;5479;52.046;6.314;2023-07-22T14:17:41;6.97;;;3.70;;
10851;SDS011;5479;52.046;6.314;2023-07-22T14:20:10;5.75;;;3.38;;
10851;SDS011;5479;52.046;6.314;2023-07-22T14:22:41;6.88;;;3.97;;
10851;SDS011;5479;52.046;6.314;2023-07-22T14:25:10;7.43;;;3.88;;
10851;SDS011;5479;52.046;6.314;2023-07-22T14:27:41;7.25;;;4.03;;
10851;SDS011;5479;52.046;6.314;2023-07-22T14:30:09;5.70;;;3.65;;
10851;SDS011;5479;52.046;6.314;2023-07-22T14:32:51;5.60;;;3.60;;
10851;SDS011;5479;52.046;6.314;2023-07-22T14:35:19;7.78;;;3.80;;
10851;SDS011;5479;52.046;6.314;2023-07-22T14:37:49;6.72;;;4.35;;
10851;SDS011;5479;52.046;6.314;2023-07-22T14:40:17;8.68;;;4.00;;
10851;SDS011;5479;52.046;6.314;2023-07-22T14:42:48;6.78;;;4.05;;
10851;SDS011;5479;52.046;6.314;2023-07-22T14:45:16;7.63;;;4.43;;
10851;SDS011;5479;52.046;6.314;2023-07-22T14:47:46;6.55;;;3.90;;
10851;SDS011;5479;52.046;6.314;2023-07-22T14:50:16;7.95;;;4.47;;
10851;SDS011;5479;52.046;6.314;2023-07-22T14:52:45;6.93;;;4.45;;
10851;SDS011;5479;52.046;6.314;2023-07-22T14:55:13;8.25;;;4.38;;
10851;SDS011;5479;52.046;6.314;2023-07-22T14:57:41;7.25;;;4.20;;
10851;SDS011;5479;52.046;6.314;2023-07-22T15:00:10;6.20;;;4.45;;